createdAt,value
2023-01-05T00:01:23.250Z,100.00
2023-01-05T00:03:27.010Z,100.00
2023-01-05T00:05:31.661Z,100.00
2023-01-05T00:07:36.863Z,100.00
2023-01-05T00:09:40.551Z,100.00
2023-01-05T00:12:16.886Z,100.00
2023-01-05T00:14:39.936Z,100.00
2023-01-05T00:17:01.191Z,100.00
2023-01-05T00:19:31.630Z,100.00
2023-01-05T00:21:53.032Z,100.00
2023-01-05T00:23:58.061Z,100.00
2023-01-05T00:26:01.788Z,100.00
2023-01-05T00:28:05.854Z,100.00
2023-01-05T00:30:10.666Z,100.00
2023-01-05T00:32:14.406Z,100.00
2023-01-05T00:34:17.862Z,100.00
2023-01-05T00:36:21.835Z,100.00
2023-01-05T00:38:26.013Z,100.00
2023-01-05T00:40:31.704Z,100.00
2023-01-05T00:42:36.004Z,100.00
2023-01-05T00:44:39.475Z,100.00
2023-01-05T00:46:43.057Z,100.00
2023-01-05T00:48:46.677Z,100.00
2023-01-05T00:50:51.453Z,100.00
2023-01-05T00:52:54.969Z,100.00
2023-01-05T00:54:59.002Z,100.00
2023-01-05T00:57:04.067Z,100.00
2023-01-05T00:59:07.669Z,100.00
2023-01-05T01:01:11.854Z,100.00
2023-01-05T01:03:15.636Z,100.00
2023-01-05T01:05:19.615Z,100.00
2023-01-05T01:07:23.673Z,100.00
2023-01-05T01:09:27.699Z,100.00
2023-01-05T01:11:31.393Z,100.00
2023-01-05T01:13:36.742Z,100.00
2023-01-05T01:15:40.388Z,100.00
2023-01-05T01:17:44.022Z,100.00
2023-01-05T01:19:47.715Z,100.00
2023-01-05T01:21:51.990Z,100.00
2023-01-05T01:23:55.647Z,100.00
2023-01-05T01:25:59.920Z,100.00
2023-01-05T01:28:03.515Z,100.00
2023-01-05T01:30:10.849Z,100.00
2023-01-05T01:32:14.510Z,100.00
2023-01-05T01:34:18.392Z,100.00
2023-01-05T01:36:22.073Z,100.00
2023-01-05T01:38:27.306Z,100.00
2023-01-05T01:40:30.979Z,100.00
2023-01-05T01:42:35.730Z,100.00
2023-01-05T01:45:03.692Z,100.00
2023-01-05T01:47:15.644Z,100.00
2023-01-05T01:49:19.171Z,100.00
2023-01-05T01:51:28.621Z,100.00
2023-01-05T01:53:38.157Z,100.00
2023-01-05T01:55:42.508Z,100.00
2023-01-05T01:57:48.260Z,100.00
2023-01-05T01:59:53.304Z,100.00
2023-01-05T02:02:02.033Z,100.00
2023-01-05T02:04:09.234Z,100.00
2023-01-05T02:06:14.130Z,100.00
2023-01-05T02:08:25.524Z,100.00
2023-01-05T02:10:43.366Z,100.00
2023-01-05T02:13:02.963Z,100.00
2023-01-05T02:15:20.379Z,100.00
2023-01-05T02:17:35.143Z,100.00
2023-01-05T02:20:24.378Z,100.00
2023-01-05T02:23:04.763Z,100.00
2023-01-05T02:25:48.339Z,100.00
2023-01-05T02:28:01.097Z,100.00
2023-01-05T02:30:47.849Z,100.00
2023-01-05T02:32:58.713Z,100.00
2023-01-05T02:35:14.776Z,100.00
2023-01-05T02:37:26.300Z,100.00
2023-01-05T02:39:36.145Z,100.00
2023-01-05T02:41:46.716Z,100.00
2023-01-05T02:43:51.887Z,100.00
2023-01-05T02:45:56.003Z,100.00
2023-01-05T02:48:01.140Z,100.00
2023-01-05T02:50:10.430Z,100.00
2023-01-05T02:52:15.360Z,100.00
2023-01-05T02:54:25.671Z,100.00
2023-01-05T02:56:37.209Z,100.00
2023-01-05T02:58:45.293Z,100.00
2023-01-05T03:00:54.968Z,100.00
2023-01-05T03:03:06.704Z,100.00
2023-01-05T03:05:15.263Z,100.00
2023-01-05T03:07:24.484Z,100.00
2023-01-05T03:09:37.033Z,100.00
2023-01-05T03:12:07.997Z,100.00
2023-01-05T03:14:16.164Z,100.00
2023-01-05T03:16:26.034Z,100.00
2023-01-05T03:18:55.360Z,100.00
2023-01-05T03:20:59.475Z,100.00
2023-01-05T03:23:23.967Z,100.00
2023-01-05T03:25:46.403Z,100.00
2023-01-05T03:28:10.077Z,100.00
2023-01-05T03:30:31.737Z,100.00
2023-01-05T03:32:56.899Z,100.00
2023-01-05T03:35:23.817Z,100.00
2023-01-05T03:37:32.795Z,100.00
2023-01-05T03:39:39.661Z,100.00
2023-01-05T03:41:44.199Z,100.00
2023-01-05T03:43:49.714Z,100.00
2023-01-05T03:45:57.286Z,100.00
2023-01-05T03:48:05.545Z,100.00
2023-01-05T03:50:12.100Z,100.00
2023-01-05T03:52:15.682Z,100.00
2023-01-05T03:54:19.419Z,100.00
2023-01-05T03:56:24.444Z,100.00
2023-01-05T03:58:31.868Z,100.00
2023-01-05T04:00:35.627Z,100.00
2023-01-05T04:02:44.622Z,100.00
2023-01-05T04:04:52.779Z,100.00
2023-01-05T04:06:59.532Z,100.00
2023-01-05T04:09:03.632Z,100.00
2023-01-05T04:11:17.473Z,100.00
2023-01-05T04:13:28.306Z,100.00
2023-01-05T04:15:32.672Z,100.00
2023-01-05T04:17:38.086Z,100.00
2023-01-05T04:19:41.972Z,100.00
2023-01-05T04:21:45.627Z,100.00
2023-01-05T04:23:51.689Z,100.00
2023-01-05T04:25:56.035Z,100.00
2023-01-05T04:28:00.702Z,100.00
2023-01-05T04:30:04.761Z,100.00
2023-01-05T04:32:09.485Z,100.00
2023-01-05T04:34:13.800Z,100.00
2023-01-05T04:36:17.394Z,100.00
2023-01-05T04:38:21.754Z,100.00
2023-01-05T04:40:27.493Z,100.00
2023-01-05T04:42:31.376Z,100.00
2023-01-05T04:44:35.204Z,100.00
2023-01-05T04:46:41.273Z,100.00
2023-01-05T04:48:47.872Z,100.00
2023-01-05T04:50:57.094Z,100.00
2023-01-05T04:53:10.926Z,100.00
2023-01-05T04:55:17.369Z,100.00
2023-01-05T04:57:22.956Z,100.00
2023-01-05T04:59:29.184Z,100.00
2023-01-05T05:01:39.084Z,100.00
2023-01-05T05:03:45.808Z,100.00
2023-01-05T05:05:54.073Z,100.00
2023-01-05T05:07:59.594Z,100.00
2023-01-05T05:10:06.119Z,100.00
2023-01-05T05:12:10.286Z,100.00
2023-01-05T05:14:16.423Z,100.00
2023-01-05T05:16:20.647Z,100.00
2023-01-05T05:18:25.443Z,100.00
2023-01-05T05:20:29.364Z,100.00
2023-01-05T05:22:32.651Z,100.00
2023-01-05T05:24:38.466Z,100.00
2023-01-05T05:26:41.734Z,100.00
2023-01-05T05:28:44.965Z,100.00
2023-01-05T05:30:51.438Z,100.00
2023-01-05T05:32:54.681Z,100.00
2023-01-05T05:34:58.075Z,100.00
2023-01-05T05:37:01.337Z,100.00
2023-01-05T05:39:04.806Z,100.00
2023-01-05T05:41:08.153Z,100.00
2023-01-05T05:43:11.418Z,100.00
2023-01-05T05:45:14.609Z,100.00
2023-01-05T05:47:19.264Z,100.00
2023-01-05T05:49:23.863Z,100.00
2023-01-05T05:51:28.143Z,100.00
2023-01-05T05:53:31.381Z,100.00
2023-01-05T05:55:34.971Z,100.00
2023-01-05T05:57:38.335Z,100.00
2023-01-05T05:59:41.988Z,100.00
2023-01-05T06:01:45.573Z,100.00
2023-01-05T06:03:50.539Z,100.00
2023-01-05T06:05:53.988Z,100.00
2023-01-05T06:07:57.444Z,100.00
2023-01-05T06:10:00.699Z,100.00
2023-01-05T06:12:04.292Z,100.00
2023-01-05T06:14:07.843Z,100.00
2023-01-05T06:16:11.324Z,100.00
2023-01-05T06:18:14.632Z,100.00
2023-01-05T06:20:19.668Z,100.00
2023-01-05T06:22:22.856Z,100.00
2023-01-05T06:24:26.163Z,100.00
2023-01-05T06:26:29.386Z,100.00
2023-01-05T06:28:32.851Z,100.00
2023-01-05T06:30:36.167Z,100.00
2023-01-05T06:32:39.578Z,100.00
2023-01-05T06:34:42.857Z,100.00
2023-01-05T06:36:47.631Z,100.00
2023-01-05T06:38:50.872Z,100.00
2023-01-05T06:40:54.856Z,100.00
2023-01-05T06:42:58.061Z,100.00
2023-01-05T06:45:20.292Z,100.00
2023-01-05T06:47:23.648Z,100.00
2023-01-05T06:49:26.995Z,100.00
2023-01-05T06:51:30.309Z,100.00
2023-01-05T06:53:34.966Z,100.00
2023-01-05T06:55:38.209Z,100.00
2023-01-05T06:57:41.539Z,100.00
2023-01-05T06:59:44.819Z,100.00
2023-01-05T07:01:48.308Z,100.00
2023-01-05T07:03:51.797Z,100.00
2023-01-05T07:05:55.046Z,100.00
2023-01-05T07:07:58.329Z,100.00
2023-01-05T07:10:03.268Z,100.00
2023-01-05T07:12:06.804Z,100.00
2023-01-05T07:14:10.055Z,100.00
2023-01-05T07:16:13.382Z,100.00
2023-01-05T07:18:16.688Z,100.00
2023-01-05T07:20:19.859Z,100.00
2023-01-05T07:22:23.273Z,100.00
2023-01-05T07:24:26.533Z,100.00
2023-01-05T07:26:31.161Z,100.00
2023-01-05T07:28:34.937Z,100.00
2023-01-05T07:30:38.503Z,100.00
2023-01-05T07:32:41.814Z,100.00
2023-01-05T07:34:54.757Z,100.00
2023-01-05T07:36:59.173Z,100.00
2023-01-05T07:39:02.556Z,100.00
2023-01-05T07:41:06.085Z,100.00
2023-01-05T07:43:10.740Z,100.00
2023-01-05T07:45:14.178Z,100.00
2023-01-05T07:47:17.440Z,100.00
2023-01-05T07:49:20.808Z,100.00
2023-01-05T07:51:24.471Z,100.00
2023-01-05T07:53:27.866Z,100.00
2023-01-05T07:55:31.101Z,100.00
2023-01-05T07:57:34.718Z,100.00
2023-01-05T07:59:39.593Z,100.00
2023-01-05T08:01:44.536Z,100.00
2023-01-05T08:03:48.292Z,100.00
2023-01-05T08:05:52.114Z,100.00
2023-01-05T08:07:55.847Z,100.00
2023-01-05T08:10:16.553Z,100.00
2023-01-05T08:12:20.076Z,100.00
2023-01-05T08:14:22.689Z,100.00
2023-01-05T08:16:29.162Z,100.00
2023-01-05T08:18:32.870Z,100.00
2023-01-05T08:20:36.784Z,100.00
2023-01-05T08:22:40.712Z,100.00
2023-01-05T08:24:44.336Z,100.00
2023-01-05T08:26:50.833Z,100.00
2023-01-05T08:28:55.190Z,100.00
2023-01-05T08:31:02.707Z,100.00
2023-01-05T08:33:08.021Z,100.00
2023-01-05T08:35:11.776Z,100.00
2023-01-05T08:37:15.271Z,100.00
2023-01-05T08:39:18.866Z,100.00
2023-01-05T08:41:24.560Z,100.00
2023-01-05T08:43:28.411Z,100.00
2023-01-05T08:45:32.130Z,100.00
2023-01-05T08:47:36.495Z,100.00
2023-01-05T08:49:41.772Z,100.00
2023-01-05T08:51:45.656Z,100.00
2023-01-05T08:53:49.752Z,100.00
2023-01-05T08:55:53.345Z,100.00
2023-01-05T08:57:58.488Z,100.00
2023-01-05T09:00:02.126Z,100.00
2023-01-05T09:02:06.579Z,100.00
2023-01-05T09:04:10.443Z,100.00
2023-01-05T09:06:15.994Z,100.00
2023-01-05T09:08:19.556Z,100.00
2023-01-05T09:10:23.070Z,100.00
2023-01-05T09:12:31.048Z,100.00
2023-01-05T09:14:36.499Z,100.00
2023-01-05T09:17:06.078Z,100.00
2023-01-05T09:19:04.688Z,100.00
2023-01-05T09:21:08.690Z,100.00
2023-01-05T09:23:13.836Z,100.00
2023-01-05T09:25:17.445Z,100.00
2023-01-05T09:27:21.019Z,100.00
2023-01-05T09:29:24.680Z,100.00
2023-01-05T09:31:28.563Z,100.00
2023-01-05T09:33:32.383Z,100.00
2023-01-05T09:35:36.021Z,100.00
2023-01-05T09:37:39.707Z,100.00
2023-01-05T09:39:44.967Z,100.00
2023-01-05T09:41:51.660Z,100.00
2023-01-05T09:44:00.159Z,100.00
2023-01-05T09:46:06.655Z,100.00
2023-01-05T09:48:15.184Z,100.00
2023-01-05T09:50:22.018Z,100.00
2023-01-05T09:52:26.422Z,99.87
2023-01-05T09:54:33.317Z,100.00
2023-01-05T09:57:09.184Z,99.66
2023-01-05T09:59:13.671Z,99.37
2023-01-05T10:01:21.053Z,98.96
2023-01-05T10:04:02.492Z,99.47
2023-01-05T10:05:51.706Z,99.14
2023-01-05T10:08:01.735Z,98.81
2023-01-05T10:10:12.918Z,99.16
2023-01-05T10:12:41.773Z,99.30
2023-01-05T10:14:48.989Z,99.13
2023-01-05T10:16:57.748Z,98.81
2023-01-05T10:19:18.523Z,99.04
2023-01-05T10:21:32.501Z,98.43
2023-01-05T10:24:02.883Z,98.03
2023-01-05T10:26:14.209Z,98.50
2023-01-05T10:28:34.453Z,97.64
2023-01-05T10:30:47.742Z,97.75
2023-01-05T10:33:14.868Z,97.64
2023-01-05T10:36:00.131Z,96.85
2023-01-05T10:38:13.521Z,96.59
2023-01-05T10:40:30.611Z,96.74
2023-01-05T10:42:45.631Z,96.32
2023-01-05T10:44:56.856Z,96.06
2023-01-05T10:47:00.833Z,96.03
2023-01-05T10:49:06.943Z,95.38
2023-01-05T10:51:11.327Z,94.99
2023-01-05T10:53:17.855Z,94.15
2023-01-05T10:55:23.203Z,94.00
2023-01-05T10:57:38.778Z,93.24
2023-01-05T10:59:56.877Z,93.87
2023-01-05T11:02:01.007Z,93.97
2023-01-05T11:04:33.341Z,93.31
2023-01-05T11:06:35.826Z,93.13
2023-01-05T11:08:39.865Z,92.44
2023-01-05T11:10:51.818Z,92.66
2023-01-05T11:13:01.683Z,92.37
2023-01-05T11:15:15.510Z,92.41
2023-01-05T11:17:22.895Z,92.07
2023-01-05T11:19:32.836Z,92.08
2023-01-05T11:21:45.486Z,92.22
2023-01-05T11:23:51.435Z,92.58
2023-01-05T11:25:54.900Z,92.71
2023-01-05T11:28:12.431Z,92.53
2023-01-05T11:30:25.730Z,92.74
2023-01-05T11:32:28.958Z,92.01
2023-01-05T11:34:40.504Z,92.53
2023-01-05T11:36:45.409Z,92.89
2023-01-05T11:38:55.331Z,92.07
2023-01-05T11:41:01.663Z,92.83
2023-01-05T11:43:12.978Z,92.42
2023-01-05T11:45:25.278Z,92.14
2023-01-05T11:47:37.824Z,92.33
2023-01-05T11:49:45.180Z,92.49
2023-01-05T11:51:48.751Z,92.83
2023-01-05T11:53:52.500Z,93.36
2023-01-05T11:56:03.541Z,92.54
2023-01-05T11:58:27.196Z,93.26
2023-01-05T12:00:36.430Z,93.58
2023-01-05T12:03:07.792Z,93.18
2023-01-05T12:05:32.580Z,92.99
2023-01-05T12:07:38.105Z,92.94
2023-01-05T12:09:46.929Z,92.77
2023-01-05T12:11:58.939Z,92.32
2023-01-05T12:14:13.950Z,92.63
2023-01-05T12:16:39.846Z,92.99
2023-01-05T12:19:10.453Z,92.94
2023-01-05T12:21:21.357Z,93.45
2023-01-05T12:23:53.636Z,92.88
2023-01-05T12:26:04.651Z,92.42
2023-01-05T12:28:43.577Z,93.32
2023-01-05T12:34:01.764Z,92.90
2023-01-05T12:36:12.992Z,93.18
2023-01-05T12:38:26.013Z,93.53
2023-01-05T12:40:43.869Z,93.42
2023-01-05T12:43:06.263Z,93.13
2023-01-05T12:45:41.204Z,93.66
2023-01-05T12:47:55.303Z,92.72
2023-01-05T12:50:04.343Z,93.53
2023-01-05T12:52:15.917Z,93.51
2023-01-05T12:54:30.222Z,93.53
2023-01-05T12:56:39.741Z,92.75
2023-01-05T12:58:54.188Z,92.54
2023-01-05T13:00:58.910Z,92.44
2023-01-05T13:03:04.246Z,92.85
2023-01-05T13:05:18.604Z,92.14
2023-01-05T13:07:26.802Z,92.15
2023-01-05T13:09:33.967Z,92.43
2023-01-05T13:11:42.795Z,92.49
2023-01-05T13:13:49.801Z,92.92
2023-01-05T13:15:58.837Z,92.33
2023-01-05T13:18:05.487Z,92.85
2023-01-05T13:20:24.655Z,92.73
2023-01-05T13:22:32.058Z,93.31
2023-01-05T13:24:40.010Z,93.27
2023-01-05T13:26:43.709Z,92.63
2023-01-05T13:28:49.640Z,93.41
2023-01-05T13:31:18.400Z,93.54
2023-01-05T13:33:42.587Z,94.06
2023-01-05T13:36:12.031Z,94.80
2023-01-05T13:38:50.149Z,95.13
2023-01-05T13:41:10.179Z,95.66
2023-01-05T13:43:54.207Z,95.77
2023-01-05T13:46:15.759Z,95.83
2023-01-05T13:48:45.139Z,96.48
2023-01-05T13:51:31.958Z,96.18
2023-01-05T13:53:40.527Z,96.08
2023-01-05T13:55:51.173Z,96.33
2023-01-05T13:57:56.610Z,96.67
2023-01-05T14:00:10.243Z,96.85
2023-01-05T14:02:32.587Z,96.91
2023-01-05T14:04:37.346Z,96.54
2023-01-05T14:06:46.900Z,96.80
2023-01-05T14:09:00.577Z,97.05
2023-01-05T14:11:14.434Z,96.84
2023-01-05T14:13:50.062Z,97.20
2023-01-05T14:15:53.633Z,96.88
2023-01-05T14:17:58.851Z,97.15
2023-01-05T14:20:02.528Z,97.06
2023-01-05T14:22:25.789Z,97.14
2023-01-05T14:24:32.941Z,96.93
2023-01-05T14:27:08.449Z,97.55
2023-01-05T14:29:12.110Z,97.42
2023-01-05T14:31:48.878Z,97.50
2023-01-05T14:33:55.851Z,97.63
2023-01-05T14:35:59.495Z,97.85
2023-01-05T14:38:07.385Z,97.80
2023-01-05T14:40:26.609Z,98.05
2023-01-05T14:42:36.268Z,98.35
2023-01-05T14:44:47.155Z,98.75
2023-01-05T14:46:59.207Z,99.04
2023-01-05T14:49:06.533Z,99.04
2023-01-05T14:51:18.213Z,99.67
2023-01-05T14:53:46.262Z,99.84
2023-01-05T14:56:16.082Z,100.00
2023-01-05T14:58:54.702Z,100.00
2023-01-05T15:01:03.604Z,100.00
2023-01-05T15:03:19.528Z,100.00
2023-01-05T15:05:24.197Z,100.00
2023-01-05T15:07:42.046Z,100.00
2023-01-05T15:10:18.851Z,100.00
2023-01-05T15:12:53.250Z,100.00
2023-01-05T15:15:16.685Z,100.00
2023-01-05T15:17:45.624Z,100.00
2023-01-05T15:20:04.457Z,100.00
2023-01-05T15:22:38.095Z,100.00
2023-01-05T15:25:09.104Z,100.00
2023-01-05T15:27:34.686Z,100.00
2023-01-05T15:29:52.807Z,100.00
2023-01-05T15:32:00.655Z,100.00
2023-01-05T15:34:16.353Z,100.00
2023-01-05T15:36:27.823Z,100.00
2023-01-05T15:38:32.554Z,100.00
2023-01-05T15:40:38.139Z,100.00
2023-01-05T15:42:45.134Z,100.00
2023-01-05T15:44:50.716Z,100.00
2023-01-05T15:46:56.422Z,100.00
2023-01-05T15:49:00.116Z,100.00
2023-01-05T15:51:06.664Z,100.00
2023-01-05T15:53:28.891Z,100.00
2023-01-05T15:55:33.311Z,100.00
2023-01-05T15:57:40.166Z,100.00
2023-01-05T15:59:50.443Z,100.00
2023-01-05T16:01:54.501Z,100.00
2023-01-05T16:04:09.578Z,100.00
2023-01-05T16:06:20.893Z,100.00
2023-01-05T16:08:25.040Z,100.00
2023-01-05T16:10:33.837Z,100.00
2023-01-05T16:12:39.501Z,100.00
2023-01-05T16:14:48.081Z,100.00
2023-01-05T16:16:55.957Z,100.00
2023-01-05T16:19:07.004Z,100.00
2023-01-05T16:21:18.551Z,100.00
2023-01-05T16:23:28.274Z,100.00
2023-01-05T16:25:36.577Z,100.00
2023-01-05T16:27:45.373Z,100.00
2023-01-05T16:29:50.562Z,100.00
2023-01-05T16:31:56.696Z,100.00
2023-01-05T16:34:06.581Z,100.00
2023-01-05T16:36:19.079Z,100.00
2023-01-05T16:38:28.279Z,100.00
2023-01-05T16:40:32.574Z,100.00
2023-01-05T16:42:51.246Z,100.00
2023-01-05T16:44:56.973Z,100.00
2023-01-05T16:47:09.931Z,100.00
2023-01-05T16:49:43.510Z,100.00
2023-01-05T16:51:55.447Z,100.00
2023-01-05T16:54:06.566Z,100.00
2023-01-05T16:56:20.601Z,100.00
2023-01-05T16:58:47.070Z,100.00
2023-01-05T17:00:51.247Z,100.00
2023-01-05T17:02:56.013Z,100.00
2023-01-05T17:04:59.798Z,100.00
2023-01-05T17:07:03.504Z,100.00
2023-01-05T17:09:20.363Z,100.00
2023-01-05T17:11:32.930Z,100.00
2023-01-05T17:13:43.064Z,100.00
2023-01-05T17:15:51.173Z,100.00
2023-01-05T17:17:57.131Z,100.00
2023-01-05T17:20:00.727Z,100.00
2023-01-05T17:22:07.666Z,100.00
2023-01-05T17:24:15.962Z,100.00
2023-01-05T17:26:23.821Z,100.00
2023-01-05T17:28:28.084Z,100.00
2023-01-05T17:30:31.652Z,100.00
2023-01-05T17:32:36.828Z,100.00
2023-01-05T17:34:43.066Z,100.00
2023-01-05T17:36:49.307Z,100.00
2023-01-05T17:38:53.413Z,100.00
2023-01-05T17:40:58.810Z,100.00
2023-01-05T17:43:03.304Z,100.00
2023-01-05T17:45:08.224Z,100.00
2023-01-05T17:47:11.791Z,100.00
2023-01-05T17:49:21.434Z,100.00
2023-01-05T17:51:28.608Z,100.00
2023-01-05T17:53:32.352Z,100.00
2023-01-05T17:55:36.582Z,100.00
2023-01-05T17:57:41.999Z,100.00
2023-01-05T17:59:47.045Z,100.00
2023-01-05T18:01:51.226Z,100.00
2023-01-05T18:03:54.830Z,100.00
2023-01-05T18:06:02.468Z,100.00
2023-01-05T18:08:06.468Z,100.00
2023-01-05T18:10:15.250Z,100.00
2023-01-05T18:12:18.871Z,100.00
2023-01-05T18:14:23.387Z,100.00
2023-01-05T18:16:27.271Z,100.00
2023-01-05T18:18:31.508Z,100.00
2023-01-05T18:22:45.566Z,100.00
2023-01-05T18:24:49.663Z,100.00
2023-01-05T18:26:55.701Z,100.00
2023-01-05T18:28:59.788Z,100.00
2023-01-05T18:31:03.844Z,100.00
2023-01-05T18:35:19.742Z,99.84
2023-01-05T18:37:23.654Z,99.77
2023-01-05T18:39:28.805Z,100.00
2023-01-05T18:41:32.456Z,99.38
2023-01-05T18:43:38.957Z,99.36
2023-01-05T18:45:44.788Z,99.93
2023-01-05T18:47:49.180Z,98.85
2023-01-05T18:49:55.029Z,99.22
2023-01-05T18:51:58.862Z,99.23
2023-01-05T18:54:04.953Z,98.03
2023-01-05T18:56:12.823Z,97.99
2023-01-05T18:58:17.719Z,97.68
2023-01-05T19:00:22.727Z,97.87
2023-01-05T19:02:27.723Z,96.56
2023-01-05T19:04:31.970Z,95.55
2023-01-05T19:06:36.207Z,95.63
2023-01-05T19:08:40.807Z,94.89
2023-01-05T19:10:44.807Z,94.03
2023-01-05T19:12:50.689Z,94.57
2023-01-05T19:14:54.884Z,94.39
2023-01-05T19:16:59.274Z,93.75
2023-01-05T19:19:06.667Z,93.90
2023-01-05T19:21:10.849Z,93.75
2023-01-05T19:23:14.641Z,94.16
2023-01-05T19:25:18.323Z,94.11
2023-01-05T19:27:22.042Z,93.93
2023-01-05T19:29:27.258Z,94.46
2023-01-05T19:31:31.642Z,94.54
2023-01-05T19:33:36.415Z,94.53
2023-01-05T19:35:40.201Z,94.44
2023-01-05T19:37:45.558Z,94.40
2023-01-05T19:39:49.065Z,93.80
2023-01-05T19:41:53.831Z,94.43
2023-01-05T19:43:58.949Z,93.99
2023-01-05T19:46:07.686Z,93.69
2023-01-05T19:48:11.830Z,94.30
2023-01-05T19:50:15.919Z,93.93
2023-01-05T19:52:19.900Z,93.91
2023-01-05T19:54:25.414Z,93.51
2023-01-05T19:56:31.137Z,93.76
2023-01-05T19:58:35.554Z,93.49
2023-01-05T20:00:39.055Z,93.72
2023-01-05T20:02:44.729Z,93.98
2023-01-05T20:04:49.841Z,93.45
2023-01-05T20:06:54.800Z,93.33
2023-01-05T20:09:00.509Z,94.21
2023-01-05T20:11:09.287Z,93.80
2023-01-05T20:13:13.770Z,93.34
2023-01-05T20:15:18.990Z,93.39
2023-01-05T20:17:22.959Z,93.30
2023-01-05T20:19:30.050Z,93.38
2023-01-05T20:21:33.960Z,92.89
2023-01-05T20:23:39.801Z,92.88
2023-01-05T20:25:44.487Z,93.03
2023-01-05T20:27:48.669Z,92.40
2023-01-05T20:29:52.321Z,92.33
2023-01-05T20:31:58.283Z,92.48
2023-01-05T20:34:05.037Z,92.87
2023-01-05T20:36:10.498Z,92.61
2023-01-05T20:38:14.758Z,92.45
2023-01-05T20:40:19.295Z,92.07
2023-01-05T20:42:22.977Z,93.04
2023-01-05T20:44:28.492Z,93.05
2023-01-05T20:46:34.189Z,92.99
2023-01-05T20:48:39.168Z,92.24
2023-01-05T20:50:45.067Z,91.62
2023-01-05T20:52:51.312Z,91.93
2023-01-05T20:54:56.401Z,91.52
2023-01-05T20:57:01.202Z,92.02
2023-01-05T20:59:06.073Z,91.60
2023-01-05T21:01:11.742Z,91.93
2023-01-05T21:03:17.255Z,91.50
2023-01-05T21:05:20.983Z,91.30
2023-01-05T21:07:24.920Z,90.63
2023-01-05T21:09:31.632Z,91.26
2023-01-05T21:11:35.286Z,90.34
2023-01-05T21:13:38.727Z,90.33
2023-01-05T21:15:42.258Z,90.85
2023-01-05T21:17:45.984Z,90.11
2023-01-05T21:19:50.135Z,89.77
2023-01-05T21:21:56.610Z,89.36
2023-01-05T21:24:00.065Z,89.06
2023-01-05T21:26:12.277Z,89.63
2023-01-05T21:28:19.653Z,89.09
2023-01-05T21:30:23.627Z,89.74
2023-01-05T21:32:27.283Z,89.08
2023-01-05T21:34:31.166Z,88.76
2023-01-05T21:36:38.484Z,88.96
2023-01-05T21:39:00.210Z,89.30
2023-01-05T21:41:10.804Z,88.63
2023-01-05T21:43:13.394Z,89.07
2023-01-05T21:45:18.012Z,89.38
2023-01-05T21:47:21.700Z,89.93
2023-01-05T21:49:25.696Z,89.71
2023-01-05T21:51:46.611Z,90.00
2023-01-05T21:54:08.878Z,90.26
2023-01-05T21:56:29.875Z,90.65
2023-01-05T21:58:34.952Z,90.78
2023-01-05T22:00:39.321Z,91.45
2023-01-05T22:02:42.902Z,91.56
2023-01-05T22:04:47.393Z,91.61
2023-01-05T22:06:52.155Z,91.96
2023-01-05T22:08:56.709Z,91.78
2023-01-05T22:11:03.136Z,92.12
2023-01-05T22:13:09.075Z,92.32
2023-01-05T22:15:13.539Z,92.71
2023-01-05T22:17:17.615Z,92.09
2023-01-05T22:19:22.240Z,92.65
2023-01-05T22:21:28.624Z,92.31
2023-01-05T22:23:34.273Z,92.60
2023-01-05T22:25:38.113Z,92.35
2023-01-05T22:27:42.364Z,92.31
2023-01-05T22:29:48.372Z,92.18
2023-01-05T22:31:53.585Z,92.04
2023-01-05T22:33:59.308Z,91.56
2023-01-05T22:36:03.979Z,91.90
2023-01-05T22:38:07.893Z,91.31
2023-01-05T22:40:13.275Z,91.87
2023-01-05T22:42:17.020Z,91.39
2023-01-05T22:44:22.492Z,91.48
2023-01-05T22:46:29.613Z,91.57
2023-01-05T22:48:34.559Z,91.41
2023-01-05T22:50:38.014Z,91.70
2023-01-05T22:52:42.436Z,91.39
2023-01-05T22:56:50.412Z,91.83
2023-01-05T22:58:54.655Z,91.52
2023-01-05T23:01:08.703Z,91.80
2023-01-05T23:03:13.708Z,91.81
2023-01-05T23:05:17.360Z,91.52
2023-01-05T23:07:22.728Z,91.74
2023-01-05T23:09:26.499Z,91.84
2023-01-05T23:11:31.906Z,91.92
2023-01-05T23:13:35.684Z,91.54
2023-01-05T23:15:39.490Z,91.85
2023-01-05T23:17:42.936Z,91.73
2023-01-05T23:19:49.022Z,91.87
2023-01-05T23:21:52.625Z,92.03
2023-01-05T23:23:57.946Z,92.35
2023-01-05T23:26:02.074Z,92.31
2023-01-05T23:28:05.997Z,92.97
2023-01-05T23:30:10.438Z,92.72
2023-01-05T23:32:14.129Z,93.08
2023-01-05T23:34:18.185Z,92.89
2023-01-05T23:36:24.897Z,92.98
2023-01-05T23:38:29.678Z,93.19
2023-01-05T23:40:33.239Z,93.37
2023-01-05T23:42:46.559Z,93.78
2023-01-05T23:44:50.143Z,93.99
2023-01-05T23:46:53.750Z,93.71
2023-01-05T23:48:57.429Z,94.17
2023-01-05T23:51:01.187Z,94.18
2023-01-05T23:53:06.057Z,94.29
2023-01-05T23:55:10.383Z,94.16
2023-01-05T23:57:13.804Z,94.16
2023-01-05T23:59:17.424Z,94.34
